Terminal Aerodrome Forecast
Issued by NWS Wilmington, NC

Home | Current Version | Previous Version | Text Only | Print | Product List | Glossary On
Versions: 1 2 3 4 5 6 7 8 9 10 11 12 13 14 15 16 17 18 19 20 21 22 23 24 25 26 27
000
FTUS42 KILM 051100
TAFMYR
TAF
KMYR 051131Z 0512/0612 20010G15KT P6SM SCT006 SCT060 WS010/22030KT
     FM051500 23014G22KT P6SM FEW010 SCT050
     FM052200 35016G24KT 5SM -SHRA SCT007 OVC012
     FM060300 36020G28KT 5SM -RA BR OVC007=

USA.gov is the U.S. government's official web portal to all federal, state and local government web resources and services.